Time;durP1;ratioP1;P1;durP2;ratioP2;P2;SDS_P1;SDS_P2;PMS_P1;PMS_P2;Temp;Humidity;BMP_temperature;BMP_pressure;BME280_temperature;BME280_humidity;BME280_pressure;Samples;Min_cycle;Max_cycle;Signal;HPM_P1;HPM_P2
2021/01/05 00:00:53;;;;;;;14.00;10.30;;;2.00;99.90;;;;;;12938157;22;19935;-91
2021/01/05 00:05:54;;;;;;;14.13;11.88;;;1.90;99.90;;;;;;12914065;22;20050;-92
2021/01/05 00:10:56;;;;;;;14.43;10.63;;;1.90;99.90;;;;;;12912885;22;20385;-93
2021/01/05 00:15:57;;;;;;;16.52;11.90;;;1.90;99.90;;;;;;12909925;22;20057;-91
2021/01/05 00:20:59;;;;;;;;;;;1.90;99.90;;;;;;12913464;22;20448;-91
2021/01/05 00:26:00;;;;;;;15.27;11.00;;;1.90;99.90;;;;;;12938898;22;19915;-91
2021/01/05 00:31:02;;;;;;;18.30;12.63;;;1.90;99.90;;;;;;12912715;22;20090;-91
2021/01/05 00:36:04;;;;;;;16.38;11.77;;;1.90;99.90;;;;;;12914221;22;20062;-91
2021/01/05 00:41:06;;;;;;;16.35;11.52;;;2.00;99.90;;;;;;12889406;22;20124;-91
2021/01/05 00:46:09;;;;;;;16.73;11.30;;;1.90;99.90;;;;;;12937932;22;20038;-92
2021/01/05 00:51:14;;;;;;;13.10;10.60;;;1.90;99.90;;;;;;12912835;22;20051;-92
2021/01/05 00:56:15;;;;;;;13.35;10.50;;;1.90;99.90;;;;;;12938365;22;20051;-91
2021/01/05 01:01:20;;;;;;;;;;;2.00;99.90;;;;;;12915364;22;20016;-91
2021/01/05 01:06:21;;;;;;;19.15;12.23;;;2.00;99.90;;;;;;12962400;22;19919;-91
2021/01/05 01:11:23;;;;;;;17.98;11.55;;;2.00;99.90;;;;;;12888830;22;20043;-92
2021/01/05 01:16:24;;;;;;;16.67;11.55;;;1.90;99.90;;;;;;12913725;22;20122;-92
2021/01/05 01:21:26;;;;;;;22.10;13.10;;;2.00;99.90;;;;;;12915163;22;20464;-92
2021/01/05 01:26:27;;;;;;;16.98;11.75;;;2.00;99.90;;;;;;12918089;22;20019;-91
2021/01/05 01:31:29;;;;;;;25.08;12.82;;;2.00;99.90;;;;;;12941654;22;20031;-91
2021/01/05 01:36:30;;;;;;;;;;;2.00;99.90;;;;;;12940751;22;20106;-91
2021/01/05 01:41:33;;;;;;;15.30;11.52;;;1.90;99.90;;;;;;12914576;22;19922;-92
2021/01/05 01:46:35;;;;;;;16.92;11.52;;;1.90;99.90;;;;;;12915678;22;20071;-92
2021/01/05 01:51:38;;;;;;;16.23;12.27;;;1.90;99.90;;;;;;12916401;22;20086;-91
2021/01/05 01:57:16;;;;;;;16.33;12.35;;;1.90;99.90;;;;;;12940792;22;20020;-91
2021/01/05 02:02:49;;;;;;;15.80;11.00;;;1.90;99.90;;;;;;12967592;22;20026;-91
2021/01/05 02:08:19;;;;;;;14.40;10.48;;;2.00;99.90;;;;;;12940341;22;20055;-91
2021/01/05 02:14:34;;;;;;;14.90;11.30;;;1.90;99.90;;;;;;12990615;22;20464;-91
2021/01/05 02:19:39;;;;;;;;;;;2.00;99.90;;;;;;12940201;22;20077;-91
2021/01/05 02:25:17;;;;;;;17.45;12.90;;;1.90;99.90;;;;;;12965579;22;19915;-92
2021/01/05 02:30:26;;;;;;;17.58;12.60;;;1.90;99.90;;;;;;12892175;22;20030;-91
2021/01/05 02:35:52;;;;;;;19.02;13.32;;;2.00;99.90;;;;;;12990575;22;20043;-91
2021/01/05 02:41:13;;;;;;;19.65;13.88;;;2.00;99.90;;;;;;12990159;22;20488;-92
2021/01/05 02:46:24;;;;;;;14.95;11.55;;;2.00;99.90;;;;;;12990266;22;20062;-92
2021/01/05 02:51:55;;;;;;;21.73;14.18;;;2.00;99.90;;;;;;12939368;22;20059;-92
2021/01/05 02:57:43;;;;;;;23.00;14.18;;;2.00;99.90;;;;;;12965097;22;20103;-92
2021/01/05 03:03:21;;;;;;;20.98;14.43;;;2.00;99.90;;;;;;12964630;22;20047;-92
2021/01/05 03:08:27;;;;;;;19.30;12.68;;;2.00;99.90;;;;;;12990007;22;20359;-92
2021/01/05 03:13:45;;;;;;;19.05;14.35;;;2.00;99.90;;;;;;12939342;22;20043;-92
2021/01/05 03:19:05;;;;;;;21.65;14.95;;;2.00;99.90;;;;;;12990654;22;20024;-93
2021/01/05 03:24:08;;;;;;;22.25;14.23;;;2.00;99.90;;;;;;12963133;22;20046;-92
2021/01/05 03:29:13;;;;;;;21.70;13.98;;;2.00;99.90;;;;;;12939523;22;20027;-92
2021/01/05 03:34:16;;;;;;;16.73;11.85;;;2.00;99.90;;;;;;12963848;22;20118;-92
2021/01/05 03:39:18;;;;;;;18.95;12.77;;;2.00;99.90;;;;;;12963222;22;20077;-92
2021/01/05 03:44:19;;;;;;;19.40;12.95;;;2.00;99.90;;;;;;12912170;22;20035;-92
2021/01/05 03:49:20;;;;;;;19.55;13.90;;;2.00;99.90;;;;;;12939251;22;20031;-91
2021/01/05 03:54:22;;;;;;;19.05;12.70;;;2.00;99.90;;;;;;12889147;22;20023;-91
2021/01/05 03:59:23;;;;;;;18.92;13.40;;;2.10;99.90;;;;;;12914006;22;20475;-91
2021/01/05 04:04:25;;;;;;;17.55;11.90;;;2.00;99.90;;;;;;12913401;22;20039;-91
2021/01/05 04:09:26;;;;;;;20.77;12.93;;;2.10;99.90;;;;;;12888852;22;20037;-92
2021/01/05 04:14:28;;;;;;;20.00;12.90;;;2.00;99.90;;;;;;12912077;22;20054;-91
2021/01/05 04:19:29;;;;;;;20.15;14.35;;;2.10;99.90;;;;;;12937800;22;20094;-92
2021/01/05 04:24:31;;;;;;;19.17;14.00;;;2.00;99.90;;;;;;12913190;22;20405;-92
2021/01/05 04:29:32;;;;;;;25.20;15.75;;;2.00;99.90;;;;;;12914005;22;20099;-92
2021/01/05 04:34:33;;;;;;;21.33;14.13;;;2.00;99.90;;;;;;12913206;22;20348;-92
2021/01/05 04:39:35;;;;;;;22.13;14.77;;;2.00;99.90;;;;;;12888440;22;20031;-92
2021/01/05 04:44:57;;;;;;;21.80;14.57;;;2.00;99.90;;;;;;12889127;22;20069;-92
2021/01/05 04:50:10;;;;;;;19.35;12.70;;;2.00;99.90;;;;;;12963860;22;20016;-92
2021/01/05 04:55:47;;;;;;;22.25;13.73;;;2.00;99.90;;;;;;12965666;22;20023;-92
2021/01/05 05:00:49;;;;;;;22.10;14.55;;;2.00;99.90;;;;;;12992336;22;20520;-92
2021/01/05 05:06:32;;;;;;;18.10;13.27;;;2.10;99.90;;;;;;12941572;22;20399;-92
2021/01/05 05:12:02;;;;;;;21.05;14.02;;;2.10;99.90;;;;;;12941952;22;20026;-92
2021/01/05 05:17:43;;;;;;;21.92;14.02;;;2.00;99.90;;;;;;12967010;22;20103;-92
2021/01/05 05:23:16;;;;;;;18.80;13.48;;;2.10;99.90;;;;;;12967544;22;20019;-92
2021/01/05 05:28:29;;;;;;;20.05;13.25;;;2.10;99.90;;;;;;12863766;22;20337;-92
2021/01/05 05:33:37;;;;;;;18.83;13.10;;;2.10;99.90;;;;;;12967121;22;20058;-91
2021/01/05 05:39:47;;;;;;;17.77;12.63;;;2.00;99.90;;;;;;12940403;22;20066;-91
2021/01/05 05:45:03;;;;;;;20.05;12.95;;;2.10;99.90;;;;;;12941969;22;20026;-91
2021/01/05 05:50:15;;;;;;;19.00;12.80;;;2.10;99.90;;;;;;12966665;22;20050;-92
2021/01/05 05:55:47;;;;;;;19.30;13.63;;;2.10;99.90;;;;;;12966084;22;20035;-92
2021/01/05 06:00:59;;;;;;;16.33;12.63;;;2.10;99.90;;;;;;12940699;22;20092;-92
2021/01/05 06:06:01;;;;;;;18.38;13.68;;;2.00;99.90;;;;;;12965108;22;20453;-92
2021/01/05 06:11:02;;;;;;;20.75;13.85;;;2.00;99.90;;;;;;12965418;22;20024;-91
2021/01/05 06:28:56;;;;;;;22.58;14.00;;;2.10;99.90;;;;;;12930256;22;20024;-92
2021/01/05 06:33:58;;;;;;;19.73;13.25;;;2.10;99.90;;;;;;12858801;23;20044;-93
2021/01/05 06:39:00;;;;;;;17.58;11.68;;;2.10;99.90;;;;;;12877512;23;20040;-93
2021/01/05 06:44:02;;;;;;;15.57;10.90;;;2.10;99.90;;;;;;12877449;23;20039;-92
2021/01/05 06:49:06;;;;;;;19.75;12.45;;;2.00;99.90;;;;;;12877877;23;20476;-92
2021/01/05 06:54:08;;;;;;;20.35;12.25;;;2.10;99.90;;;;;;12876817;23;20031;-92
2021/01/05 06:59:09;;;;;;;;;;;2.10;99.90;;;;;;12875648;23;20040;-92
2021/01/05 07:04:10;;;;;;;21.48;12.73;;;2.10;99.90;;;;;;12901600;23;20368;-92
2021/01/05 07:09:14;;;;;;;20.38;12.60;;;2.10;99.90;;;;;;12851898;23;20027;-93
2021/01/05 07:14:22;;;;;;;23.25;13.45;;;2.10;99.90;;;;;;12876129;23;20028;-92
2021/01/05 07:19:24;;;;;;;22.90;14.52;;;2.10;99.90;;;;;;12876338;23;20418;-92
2021/01/05 07:24:25;;;;;;;22.95;13.85;;;2.10;99.90;;;;;;12901188;23;20446;-92
2021/01/05 07:29:27;;;;;;;26.75;14.25;;;2.00;99.90;;;;;;12850185;23;20522;-92
2021/01/05 07:34:29;;;;;;;19.42;13.23;;;2.10;99.90;;;;;;12851706;23;20358;-94
2021/01/05 07:39:33;;;;;;;26.15;16.17;;;2.10;99.90;;;;;;12850971;23;20043;-94
2021/01/05 07:44:35;;;;;;;32.90;17.70;;;2.10;99.90;;;;;;12875099;23;20044;-94
2021/01/05 07:49:37;;;;;;;24.33;15.65;;;2.10;99.90;;;;;;12850594;23;20363;-94
2021/01/05 07:54:38;;;;;;;29.38;18.10;;;2.10;99.90;;;;;;12850909;23;20095;-94
2021/01/05 07:59:40;;;;;;;28.00;17.10;;;2.10;99.90;;;;;;12876611;23;20074;-94
2021/01/05 08:04:43;;;;;;;26.67;16.10;;;2.20;99.90;;;;;;12851298;23;20017;-94
2021/01/05 08:09:44;;;;;;;30.88;17.55;;;2.10;99.90;;;;;;12876121;23;20027;-93
2021/01/05 08:14:47;;;;;;;28.38;17.00;;;2.10;99.90;;;;;;12875368;23;20360;-95
2021/01/05 08:19:49;;;;;;;23.48;14.88;;;2.20;99.90;;;;;;12876673;23;20024;-95
2021/01/05 08:24:54;;;;;;;;;;;2.20;99.90;;;;;;12884329;23;20024;-95
2021/01/05 08:29:56;;;;;;;24.35;14.90;;;2.10;99.90;;;;;;12885001;23;19916;-95
2021/01/05 08:34:57;;;;;;;;;;;2.20;99.90;;;;;;12856724;23;20028;-95
2021/01/05 08:39:59;;;;;;;26.23;16.65;;;2.20;99.90;;;;;;12880843;23;19991;-96
2021/01/05 08:45:00;;;;;;;27.92;16.83;;;2.20;99.90;;;;;;12854659;23;20020;-96
2021/01/05 08:50:06;;;;;;;;;;;2.20;99.90;;;;;;12879844;23;20322;-95
2021/01/05 08:55:08;;;;;;;29.85;18.02;;;2.20;99.90;;;;;;12880015;23;19917;-95
2021/01/05 09:00:14;;;;;;;26.65;16.13;;;2.20;99.90;;;;;;12880131;23;20016;-95
2021/01/05 09:05:16;;;;;;;32.65;17.27;;;2.30;99.90;;;;;;12854753;23;20020;-95
2021/01/05 09:10:26;;;;;;;23.30;14.95;;;2.30;99.90;;;;;;12878869;23;20021;-95
2021/01/05 09:15:27;;;;;;;27.42;15.23;;;2.30;99.90;;;;;;12853797;23;20078;-95
2021/01/05 09:20:29;;;;;;;33.67;19.83;;;2.30;99.90;;;;;;12854640;23;20095;-94
2021/01/05 09:25:31;;;;;;;30.33;18.77;;;2.30;99.90;;;;;;12878865;23;20016;-95
2021/01/05 09:30:32;;;;;;;28.70;16.60;;;2.40;99.90;;;;;;12853860;23;20039;-94
2021/01/05 09:35:34;;;;;;;35.22;20.13;;;2.30;99.90;;;;;;12854588;23;20020;-94
2021/01/05 09:40:41;;;;;;;35.60;19.30;;;2.30;99.90;;;;;;12878206;23;20020;-94
2021/01/05 09:45:45;;;;;;;29.00;18.00;;;2.40;99.90;;;;;;12878321;23;20515;-94
2021/01/05 09:50:47;;;;;;;30.63;17.15;;;2.40;99.90;;;;;;12854783;23;20026;-94
2021/01/05 09:55:52;;;;;;;31.65;18.00;;;2.40;99.90;;;;;;12879063;23;20445;-94
2021/01/05 10:00:54;;;;;;;28.30;18.02;;;2.40;99.90;;;;;;12854242;23;20046;-94
2021/01/05 10:05:56;;;;;;;23.83;17.33;;;2.40;99.90;;;;;;12877857;23;20023;-92
2021/01/05 10:10:58;;;;;;;21.75;14.65;;;2.50;99.90;;;;;;12854176;23;20020;-95
2021/01/05 10:15:59;;;;;;;23.52;15.00;;;2.40;99.90;;;;;;12862580;23;20043;-94
2021/01/05 10:21:01;;;;;;;21.55;14.50;;;2.50;99.90;;;;;;12866202;23;20051;-94
2021/01/05 10:26:02;;;;;;;20.27;13.88;;;2.50;99.90;;;;;;12885277;23;20036;-94
2021/01/05 10:31:04;;;;;;;;;;;2.50;99.90;;;;;;12881154;23;20081;-94
2021/01/05 10:36:06;;;;;;;22.48;15.30;;;2.50;99.90;;;;;;12854187;23;20253;-95
2021/01/05 10:41:07;;;;;;;21.90;14.63;;;2.50;99.90;;;;;;12853687;23;20067;-95
2021/01/05 10:46:11;;;;;;;25.88;16.23;;;2.50;99.90;;;;;;12877997;23;20043;-94
2021/01/05 10:51:12;;;;;;;21.30;14.70;;;2.50;99.90;;;;;;12877756;23;20020;-94
2021/01/05 10:56:16;;;;;;;23.10;15.05;;;2.50;99.90;;;;;;12876960;23;20074;-95
2021/01/05 11:01:22;;;;;;;22.83;16.08;;;2.50;99.90;;;;;;12878711;23;20472;-95
2021/01/05 11:06:23;;;;;;;20.25;13.70;;;2.60;99.90;;;;;;12876476;23;20511;-94
2021/01/05 11:11:25;;;;;;;;;;;2.50;99.90;;;;;;12877809;23;20070;-94
2021/01/05 11:16:26;;;;;;;18.30;13.23;;;2.50;99.90;;;;;;12876523;23;19938;-94
2021/01/05 11:21:28;;;;;;;20.55;13.57;;;2.50;99.90;;;;;;12851736;23;20043;-94
2021/01/05 11:26:35;;;;;;;18.33;13.02;;;2.60;99.90;;;;;;12876470;23;20465;-95
2021/01/05 11:31:37;;;;;;;19.10;14.88;;;2.50;99.90;;;;;;12876380;23;20024;-95
2021/01/05 11:36:40;;;;;;;17.67;12.80;;;2.50;99.90;;;;;;12876221;23;20056;-95
2021/01/05 11:41:45;;;;;;;18.38;13.38;;;2.50;99.90;;;;;;12876090;23;20457;-94
2021/01/05 11:46:48;;;;;;;17.85;14.10;;;2.60;99.90;;;;;;12877241;23;20020;-94
2021/01/05 11:51:53;;;;;;;17.15;12.52;;;2.60;99.90;;;;;;12876305;23;20024;-94
2021/01/05 11:56:57;;;;;;;17.45;13.10;;;2.60;99.90;;;;;;12876937;23;20051;-94
2021/01/05 12:02:01;;;;;;;18.10;12.93;;;2.60;99.90;;;;;;12875281;23;20091;-95
2021/01/05 12:07:03;;;;;;;17.08;12.35;;;2.60;99.90;;;;;;12875878;23;20042;-94
2021/01/05 12:12:09;;;;;;;17.63;13.02;;;2.60;99.90;;;;;;12859281;23;20050;-94
2021/01/05 12:17:46;;;;;;;19.85;13.40;;;2.60;99.90;;;;;;12869937;23;20028;-94
2021/01/05 12:23:11;;;;;;;17.02;12.55;;;2.60;99.90;;;;;;12726679;23;20021;-95
2021/01/05 12:36:03;;;;;;;19.73;14.32;;;2.60;99.90;;;;;;12736237;23;20352;-94
2021/01/05 12:41:29;;;;;;;21.88;15.30;;;2.70;99.90;;;;;;12649656;23;20038;-95
2021/01/05 12:47:31;;;;;;;18.70;14.07;;;2.70;99.90;;;;;;12579789;23;20026;-95
2021/01/05 12:53:05;;;;;;;18.67;13.13;;;2.70;99.90;;;;;;12517793;23;20022;-94
2021/01/05 12:58:07;;;;;;;21.48;14.75;;;2.60;99.90;;;;;;12665187;23;20493;-95
2021/01/05 13:03:09;;;;;;;18.20;13.75;;;2.60;99.90;;;;;;12810494;23;20075;-94
2021/01/05 13:09:17;;;;;;;19.88;14.75;;;2.60;99.90;;;;;;12813194;23;20032;-95
2021/01/05 13:16:19;;;;;;;19.05;15.05;;;2.60;99.90;;;;;;12737154;23;20159;-95
2021/01/05 13:28:06;;;;;;;21.98;14.77;;;2.70;99.90;;;;;;12676783;23;20018;-94
2021/01/05 13:33:07;;;;;;;24.30;16.05;;;2.70;99.90;;;;;;12629991;23;20026;-94
2021/01/05 13:38:47;;;;;;;18.77;14.52;;;2.70;99.90;;;;;;12693502;23;20021;-95
2021/01/05 13:43:49;;;;;;;24.92;16.10;;;2.70;99.90;;;;;;12782560;23;20023;-95
2021/01/05 13:48:51;;;;;;;25.65;17.05;;;2.80;99.90;;;;;;12853957;23;20082;-95
2021/01/05 13:53:53;;;;;;;26.52;16.63;;;2.80;99.90;;;;;;12878237;23;20028;-94
2021/01/05 13:59:18;;;;;;;27.40;17.98;;;2.80;99.90;;;;;;12877611;23;20723;-94
